Time;durP1;ratioP1;P1;durP2;ratioP2;P2;SDS_P1;SDS_P2;PMS_P1;PMS_P2;Temp;Humidity;BMP_temperature;BMP_pressure;BME280_temperature;BME280_humidity;BME280_pressure;Samples;Min_cycle;Max_cycle;Signal;HPM_P1;HPM_P2
2021/11/12 00:03:17;;;;;;;54.70;44.10;;;7.10;99.90;;;;;;10412405;28;20259;-82
2021/11/12 00:13:41;;;;;;;54.27;43.80;;;7.10;99.90;;;;;;10436377;28;20235;-82
2021/11/12 00:18:43;;;;;;;45.47;39.47;;;7.10;99.90;;;;;;10456996;28;20232;-82
2021/11/12 00:23:47;;;;;;;43.57;38.87;;;7.00;99.90;;;;;;10458127;28;20689;-82
2021/11/12 00:28:52;;;;;;;40.10;35.80;;;6.90;99.90;;;;;;10425406;28;20197;-82
2021/11/12 00:39:20;;;;;;;42.97;38.27;;;6.70;99.90;;;;;;10452665;28;20324;-82
2021/11/12 00:44:30;;;;;;;43.97;39.17;;;6.60;99.90;;;;;;10436560;28;20217;-82
2021/11/12 00:49:35;;;;;;;43.53;38.67;;;6.60;99.90;;;;;;10416574;28;20683;-82
2021/11/12 00:54:39;;;;;;;39.80;35.60;;;6.60;99.90;;;;;;10403877;28;20244;-82
2021/11/12 00:59:41;;;;;;;34.77;31.17;;;6.60;99.90;;;;;;10417712;28;20249;-82
2021/11/12 01:04:43;;;;;;;29.13;26.50;;;6.50;99.90;;;;;;10418144;28;20316;-82
2021/11/12 01:09:47;;;;;;;28.07;25.47;;;6.50;99.90;;;;;;10404061;28;20228;-82
2021/11/12 01:14:49;;;;;;;28.67;25.87;;;6.40;99.90;;;;;;10400646;28;20226;-82
2021/11/12 01:19:52;;;;;;;28.77;25.87;;;6.20;99.90;;;;;;10404527;28;20248;-82
2021/11/12 01:24:56;;;;;;;31.13;28.00;;;6.10;99.90;;;;;;10408948;28;20222;-82
2021/11/12 01:29:58;;;;;;;35.50;31.90;;;6.00;99.90;;;;;;10427731;28;20201;-81
2021/11/12 01:35:01;;;;;;;34.30;30.80;;;6.00;99.90;;;;;;10442512;28;20225;-81
2021/11/12 01:40:08;;;;;;;36.00;32.20;;;6.00;99.90;;;;;;10446222;28;20231;-81
2021/11/12 01:45:11;;;;;;;43.40;34.20;;;5.90;99.90;;;;;;10444408;28;20315;-82
2021/11/12 01:50:16;;;;;;;39.20;35.07;;;5.90;99.90;;;;;;10429176;28;20795;-81
2021/11/12 01:55:38;;;;;;;38.13;33.70;;;6.00;99.90;;;;;;10422238;28;20225;-81
2021/11/12 02:00:40;;;;;;;37.73;33.83;;;5.90;99.90;;;;;;10426745;28;20225;-81
2021/11/12 02:05:42;;;;;;;37.10;33.20;;;5.90;99.90;;;;;;10461337;28;20225;-81
2021/11/12 02:10:46;;;;;;;36.80;33.10;;;5.90;99.90;;;;;;10446615;28;20186;-81
2021/11/12 02:15:48;;;;;;;36.10;32.37;;;6.00;99.90;;;;;;10442410;28;20311;-81
2021/11/12 02:20:57;;;;;;;39.77;35.57;;;6.00;99.90;;;;;;10425049;28;20609;-81
2021/11/12 02:25:59;;;;;;;39.73;35.73;;;6.00;99.90;;;;;;10420227;28;20229;-81
2021/11/12 02:31:02;;;;;;;47.27;39.00;;;6.10;99.90;;;;;;10451236;28;20200;-81
2021/11/12 02:36:08;;;;;;;38.40;34.23;;;6.20;99.90;;;;;;10436341;28;20897;-81
2021/11/12 02:41:10;;;;;;;37.77;33.80;;;6.30;99.90;;;;;;10431936;28;20233;-81
2021/11/12 02:46:18;;;;;;;43.97;37.60;;;6.20;99.90;;;;;;10435339;28;20227;-81
2021/11/12 02:51:26;;;;;;;39.70;35.57;;;6.20;99.90;;;;;;10434703;28;20212;-81
2021/11/12 02:56:30;;;;;;;40.23;36.03;;;6.20;99.90;;;;;;10433820;28;20220;-81
2021/11/12 03:01:33;;;;;;;42.50;37.80;;;6.20;99.90;;;;;;10434070;28;20229;-81
2021/11/12 03:06:37;;;;;;;40.30;34.33;;;6.20;99.90;;;;;;10434266;28;20271;-81
2021/11/12 03:11:41;;;;;;;37.73;33.53;;;6.20;99.90;;;;;;10467833;28;20227;-81
2021/11/12 03:16:43;;;;;;;38.30;34.13;;;6.20;99.90;;;;;;10449005;28;20225;-81
2021/11/12 03:21:47;;;;;;;39.00;34.57;;;6.10;99.90;;;;;;10442767;28;20220;-81
2021/11/12 03:26:54;;;;;;;41.50;36.37;;;6.00;99.90;;;;;;10459874;28;20280;-81
2021/11/12 04:04:09;;;;;;;37.87;33.93;;;5.90;99.90;;;;;;10422691;28;20235;-81
2021/11/12 04:20:17;;;;;;;44.10;37.53;;;6.10;99.90;;;;;;10440604;28;20225;-81
2021/11/12 04:41:51;;;;;;;31.80;28.37;;;6.30;99.90;;;;;;10412159;28;20229;-81
2021/11/12 05:03:18;;;;;;;32.67;29.17;;;5.90;99.90;;;;;;10442652;28;20205;-80
2021/11/12 05:14:01;;;;;;;33.50;30.00;;;5.90;99.90;;;;;;10459986;28;20220;-80
2021/11/12 05:51:12;;;;;;;40.63;33.47;;;6.10;99.90;;;;;;10436414;28;20634;-82
2021/11/12 05:56:14;;;;;;;35.77;32.10;;;6.10;99.90;;;;;;10434235;28;20225;-81
2021/11/12 06:01:18;;;;;;;35.20;31.60;;;6.20;99.90;;;;;;10439617;28;20221;-82
2021/11/12 06:06:20;;;;;;;36.27;32.40;;;6.20;99.90;;;;;;10490775;22;20227;-82
2021/11/12 06:11:29;;;;;;;34.20;30.67;;;6.20;99.90;;;;;;10529949;28;20196;-83
2021/11/12 06:16:33;;;;;;;34.20;30.37;;;6.20;99.90;;;;;;10525366;28;20308;-82
2021/11/12 06:21:35;;;;;;;34.27;30.57;;;6.30;99.90;;;;;;10546193;28;20671;-82
2021/11/12 06:26:37;;;;;;;35.97;32.03;;;6.30;99.90;;;;;;10536976;28;20608;-82
2021/11/12 06:31:41;;;;;;;37.07;33.07;;;6.30;99.90;;;;;;10536389;28;20640;-82
2021/11/12 06:36:43;;;;;;;37.00;33.10;;;6.40;99.90;;;;;;10544083;28;20219;-83
2021/11/12 06:41:57;;;;;;;36.07;32.27;;;6.40;99.90;;;;;;10529043;28;20230;-83
2021/11/12 06:52:22;;;;;;;36.77;32.80;;;6.40;99.90;;;;;;10532497;28;20192;-82
2021/11/12 06:57:24;;;;;;;36.17;32.37;;;6.40;99.90;;;;;;10543777;28;20644;-82
2021/11/12 07:02:28;;;;;;;33.97;30.50;;;6.40;99.90;;;;;;10543095;28;20223;-83
2021/11/12 07:07:30;;;;;;;33.63;30.10;;;6.50;99.90;;;;;;10538608;28;20223;-82
2021/11/12 07:12:32;;;;;;;33.77;30.10;;;6.40;99.90;;;;;;10518920;28;20207;-83
2021/11/12 07:17:37;;;;;;;35.73;31.97;;;6.40;99.90;;;;;;10512513;28;20244;-83
2021/11/12 07:22:39;;;;;;;38.47;34.40;;;6.40;99.90;;;;;;10518756;28;20318;-83
2021/11/12 07:27:42;;;;;;;36.77;32.00;;;6.40;99.90;;;;;;10525883;28;20220;-82
2021/11/12 07:32:46;;;;;;;37.47;31.73;;;6.50;99.90;;;;;;10544562;28;20454;-83
2021/11/12 07:37:48;;;;;;;35.97;32.07;;;6.40;99.90;;;;;;10545334;28;20478;-82
2021/11/12 07:43:18;;;;;;;35.37;30.90;;;6.40;99.90;;;;;;10530038;28;20303;-82
2021/11/12 07:48:22;;;;;;;36.33;32.40;;;6.40;99.90;;;;;;10528448;28;20215;-83
2021/11/12 07:53:25;;;;;;;37.13;32.33;;;6.40;99.90;;;;;;10537725;28;20208;-82
2021/11/12 07:58:28;;;;;;;34.57;30.93;;;6.50;99.90;;;;;;10550812;28;20223;-82
2021/11/12 08:03:31;;;;;;;35.43;31.57;;;6.60;99.90;;;;;;10537066;28;20188;-82
2021/11/12 08:08:36;;;;;;;36.23;30.90;;;6.60;99.90;;;;;;10539706;28;20270;-81
2021/11/12 08:13:42;;;;;;;35.83;30.80;;;6.70;99.90;;;;;;10537881;28;20269;-82
2021/11/12 08:18:51;;;;;;;34.03;30.63;;;6.80;99.90;;;;;;10527661;28;20239;-82
2021/11/12 08:24:01;;;;;;;30.93;27.60;;;6.80;99.90;;;;;;10545590;28;20203;-82
2021/11/12 08:34:29;;;;;;;32.00;28.80;;;6.90;99.90;;;;;;10544655;28;20230;-83
2021/11/12 08:39:44;;;;;;;29.67;26.77;;;7.00;99.90;;;;;;10545888;28;20216;-82
2021/11/12 08:44:50;;;;;;;30.00;26.80;;;7.00;99.90;;;;;;10529788;28;20229;-82
2021/11/12 08:49:54;;;;;;;31.20;27.97;;;7.00;99.90;;;;;;10533750;28;20196;-82
2021/11/12 08:54:56;;;;;;;32.40;28.97;;;7.10;99.90;;;;;;10536256;28;20219;-83
2021/11/12 08:59:58;;;;;;;31.70;27.57;;;7.10;99.90;;;;;;10522035;28;20212;-82
2021/11/12 09:05:02;;;;;;;32.13;28.77;;;7.20;99.90;;;;;;10525692;28;20322;-83
2021/11/12 09:10:05;;;;;;;33.07;29.63;;;7.20;99.90;;;;;;10523862;28;20204;-83
2021/11/12 09:15:13;;;;;;;33.17;29.80;;;7.30;99.90;;;;;;10542946;28;20220;-83
2021/11/12 09:20:17;;;;;;;34.20;30.43;;;7.30;99.90;;;;;;10548362;28;20219;-82
2021/11/12 09:25:20;;;;;;;35.63;31.73;;;7.40;99.90;;;;;;10537093;28;20658;-82
2021/11/12 09:30:25;;;;;;;34.53;30.87;;;7.50;99.90;;;;;;10543537;28;20227;-83
2021/11/12 09:35:28;;;;;;;38.17;34.13;;;7.50;99.90;;;;;;10536889;28;20269;-83
2021/11/12 09:40:31;;;;;;;34.00;30.50;;;7.50;99.90;;;;;;10530882;28;20227;-82
2021/11/12 09:45:33;;;;;;;34.90;31.20;;;7.60;99.90;;;;;;10519815;28;20720;-82
2021/11/12 09:50:37;;;;;;;39.00;31.33;;;7.60;99.90;;;;;;10528857;28;20200;-82
2021/11/12 09:55:41;;;;;;;35.13;31.30;;;7.70;99.90;;;;;;10543872;28;20256;-82
2021/11/12 10:00:44;;;;;;;35.80;32.20;;;7.80;99.90;;;;;;10542368;28;20710;-83
2021/11/12 10:05:50;;;;;;;35.13;31.37;;;7.80;99.90;;;;;;10528943;28;20286;-82
2021/11/12 10:10:55;;;;;;;34.57;30.97;;;7.90;99.90;;;;;;10535858;28;20191;-82
2021/11/12 10:16:16;;;;;;;36.00;32.50;;;7.90;99.90;;;;;;10525986;28;20294;-82
2021/11/12 10:21:19;;;;;;;35.87;32.17;;;7.90;99.90;;;;;;10531524;28;20227;-82
2021/11/12 10:26:29;;;;;;;39.33;32.67;;;8.00;99.90;;;;;;10522862;28;20302;-82
2021/11/12 10:31:38;;;;;;;34.93;31.17;;;8.10;99.90;;;;;;10533948;28;20245;-83
2021/11/12 10:37:05;;;;;;;40.63;33.07;;;8.10;99.90;;;;;;10522899;28;20271;-82
2021/11/12 10:42:10;;;;;;;35.40;31.70;;;8.20;99.90;;;;;;10513144;28;20292;-84
2021/11/12 10:47:13;;;;;;;36.47;32.73;;;8.30;99.90;;;;;;10532999;28;20224;-83
2021/11/12 10:52:18;;;;;;;36.07;32.17;;;8.40;99.90;;;;;;10527582;28;20208;-84
2021/11/12 10:57:24;;;;;;;33.87;30.33;;;8.40;99.90;;;;;;10547429;28;20240;-82
2021/11/12 11:02:28;;;;;;;36.03;32.43;;;8.50;99.90;;;;;;10530640;28;20250;-83
2021/11/12 11:07:32;;;;;;;35.80;32.20;;;8.50;99.90;;;;;;10529508;28;20667;-83
2021/11/12 11:12:40;;;;;;;35.93;32.23;;;8.50;99.90;;;;;;10539700;28;20278;-84
2021/11/12 11:17:44;;;;;;;35.60;32.00;;;8.50;99.90;;;;;;10550791;28;20254;-82
2021/11/12 11:22:57;;;;;;;36.70;32.93;;;8.50;99.90;;;;;;10526999;28;20238;-82
2021/11/12 11:28:02;;;;;;;37.20;31.40;;;8.50;99.90;;;;;;10526127;28;20215;-83
2021/11/12 11:33:04;;;;;;;35.70;32.10;;;8.50;99.90;;;;;;10518469;28;20212;-84
2021/11/12 11:38:08;;;;;;;36.00;32.27;;;8.60;99.90;;;;;;10527771;28;20227;-82
2021/11/12 11:43:10;;;;;;;36.10;32.50;;;8.70;99.90;;;;;;10538978;28;20268;-82
2021/11/12 11:48:14;;;;;;;36.33;32.63;;;8.70;99.90;;;;;;10529645;28;20746;-82
2021/11/12 11:53:27;;;;;;;37.10;33.43;;;8.70;99.90;;;;;;10544632;28;20196;-82
2021/11/12 11:58:34;;;;;;;37.20;33.50;;;8.60;99.90;;;;;;10525644;28;20231;-83
2021/11/12 12:03:37;;;;;;;37.30;33.40;;;8.60;99.90;;;;;;10523070;28;20223;-83
2021/11/12 12:08:50;;;;;;;38.80;34.40;;;8.50;99.90;;;;;;10511319;22;20253;-81
2021/11/12 12:14:16;;;;;;;38.30;34.53;;;8.50;99.90;;;;;;10494223;28;20733;-81
2021/11/12 12:19:42;;;;;;;38.53;34.37;;;8.50;99.90;;;;;;10437655;28;20236;-82
2021/11/12 13:20:11;;;;;;;48.30;42.97;;;8.60;99.90;;;;;;10444223;28;20354;-81
2021/11/12 13:25:24;;;;;;;45.50;40.73;;;8.60;99.90;;;;;;10442671;28;20684;-81
2021/11/12 13:30:29;;;;;;;48.40;43.20;;;8.60;99.90;;;;;;10450626;28;20208;-81
2021/11/12 13:35:33;;;;;;;46.47;41.47;;;8.60;99.90;;;;;;10397803;28;20275;-81
2021/11/12 13:40:35;;;;;;;50.90;44.40;;;8.50;99.90;;;;;;10439754;28;20323;-81
2021/11/12 13:45:39;;;;;;;52.60;45.30;;;8.50;99.90;;;;;;10438188;28;20233;-81
2021/11/12 13:50:51;;;;;;;52.93;46.53;;;8.50;99.90;;;;;;10432411;28;20308;-81
2021/11/12 13:55:53;;;;;;;48.53;43.33;;;8.50;99.90;;;;;;10447477;28;20213;-81
2021/11/12 14:00:58;;;;;;;49.27;42.80;;;8.50;99.90;;;;;;10427128;28;20248;-82
2021/11/12 14:06:04;;;;;;;49.97;44.70;;;8.40;99.90;;;;;;10433848;28;20668;-81
2021/11/12 14:11:17;;;;;;;47.43;42.33;;;8.30;99.90;;;;;;10430064;28;20202;-81
2021/11/12 14:16:32;;;;;;;47.33;42.30;;;8.40;99.90;;;;;;10463307;28;20229;-81
2021/11/12 14:21:40;;;;;;;46.80;41.80;;;8.40;99.90;;;;;;10401641;28;20493;-81
2021/11/12 14:26:49;;;;;;;48.40;43.10;;;8.40;99.90;;;;;;10431658;28;20222;-81
2021/11/12 14:32:11;;;;;;;46.30;41.50;;;8.40;99.90;;;;;;10455680;28;20236;-81
2021/11/12 14:37:16;;;;;;;46.90;42.00;;;8.50;99.90;;;;;;10438448;28;20597;-81
2021/11/12 14:42:37;;;;;;;46.50;41.27;;;8.50;99.90;;;;;;10450056;28;20260;-81
2021/11/12 14:47:50;;;;;;;45.87;40.90;;;8.40;99.90;;;;;;10455600;28;20291;-81
2021/11/12 14:53:15;;;;;;;44.60;39.70;;;8.40;99.90;;;;;;10463794;28;20644;-81
2021/11/12 15:03:43;;;;;;;41.40;36.90;;;8.40;99.90;;;;;;10450698;28;20221;-82
2021/11/12 15:08:48;;;;;;;43.63;37.07;;;8.30;99.90;;;;;;10460818;28;20247;-82
2021/11/12 15:13:52;;;;;;;38.17;33.97;;;8.30;99.90;;;;;;10434560;28;20206;-82
2021/11/12 15:18:58;;;;;;;36.03;32.33;;;8.20;99.90;;;;;;10453677;28;20225;-81
2021/11/12 15:24:10;;;;;;;38.17;34.13;;;8.10;99.90;;;;;;10444426;28;20236;-81
2021/11/12 15:29:18;;;;;;;37.07;33.23;;;8.10;99.90;;;;;;10435510;28;20237;-81
2021/11/12 15:34:23;;;;;;;33.70;30.07;;;8.00;99.90;;;;;;10460200;28;20227;-81
2021/11/12 15:39:32;;;;;;;34.47;30.87;;;8.00;99.90;;;;;;10461692;28;20235;-82
2021/11/12 15:44:36;;;;;;;35.33;31.20;;;8.00;99.90;;;;;;10443194;28;20233;-81
2021/11/12 15:49:43;;;;;;;37.90;31.13;;;7.90;99.90;;;;;;10451052;28;20215;-81
2021/11/12 15:54:55;;;;;;;34.77;30.90;;;7.90;99.90;;;;;;10437719;28;20686;-81
2021/11/12 16:00:13;;;;;;;37.20;32.30;;;7.80;99.90;;;;;;10440844;28;20210;-81
2021/11/12 16:05:44;;;;;;;36.53;32.60;;;7.80;99.90;;;;;;10448264;28;20234;-81
2021/11/12 16:11:10;;;;;;;35.63;31.90;;;7.80;99.90;;;;;;10440408;28;20205;-81
2021/11/12 16:16:38;;;;;;;36.77;32.77;;;7.80;99.90;;;;;;10454108;28;20278;-81
2021/11/12 16:22:11;;;;;;;36.17;32.30;;;7.80;99.90;;;;;;10433424;28;20229;-81
2021/11/12 16:27:14;;;;;;;35.03;31.33;;;7.70;99.90;;;;;;10430961;28;20712;-81
2021/11/12 16:32:25;;;;;;;37.63;33.20;;;7.70;99.90;;;;;;10428984;28;20191;-81
2021/11/12 16:37:31;;;;;;;37.13;33.13;;;7.60;99.90;;;;;;10429977;28;20249;-81
2021/11/12 16:42:44;;;;;;;37.63;32.27;;;7.60;99.90;;;;;;10415885;28;20633;-81
2021/11/12 16:53:12;;;;;;;39.80;33.70;;;7.60;99.90;;;;;;10424719;28;20197;-81
2021/11/12 16:58:21;;;;;;;39.53;33.87;;;7.60;99.90;;;;;;10429341;28;20749;-81
2021/11/12 17:03:26;;;;;;;36.80;32.77;;;7.60;99.90;;;;;;10427491;28;20228;-80
2021/11/12 17:19:22;;;;;;;38.07;33.90;;;7.50;99.90;;;;;;10433619;28;20236;-81
2021/11/12 17:46:20;;;;;;;26.53;23.93;;;7.10;99.90;;;;;;10423698;28;20245;-81
2021/11/12 17:51:40;;;;;;;30.47;27.47;;;7.10;99.90;;;;;;10423355;28;20198;-80
2021/11/12 18:02:11;;;;;;;29.97;26.90;;;7.10;99.90;;;;;;10434306;28;20705;-81
2021/11/12 18:07:27;;;;;;;33.60;30.27;;;7.00;99.90;;;;;;10492323;22;20223;-82
2021/11/12 18:12:55;;;;;;;31.03;27.70;;;7.00;99.90;;;;;;10508397;28;20287;-82
2021/11/12 18:23:53;;;;;;;29.40;26.37;;;6.90;99.90;;;;;;10505418;28;20224;-82
2021/11/12 21:46:22;;;;;;;25.27;22.67;;;6.20;99.90;;;;;;10543870;28;20264;-81
2021/11/12 21:51:28;;;;;;;26.93;24.27;;;6.20;99.90;;;;;;10546569;28;20625;-81
2021/11/12 21:56:31;;;;;;;26.63;24.10;;;6.30;99.90;;;;;;10523028;28;20262;-81
2021/11/12 22:01:34;;;;;;;25.37;22.87;;;6.30;99.90;;;;;;10512768;28;20307;-81
2021/11/12 22:06:45;;;;;;;24.30;21.97;;;6.30;99.90;;;;;;10532451;28;20223;-82
2021/11/12 22:11:47;;;;;;;24.30;22.00;;;6.30;99.90;;;;;;10549057;28;20529;-82
2021/11/12 22:16:50;;;;;;;25.27;22.77;;;6.20;99.90;;;;;;10510341;28;20310;-81
2021/11/12 22:21:53;;;;;;;23.93;21.80;;;6.20;99.90;;;;;;10548675;28;20211;-81
2021/11/12 22:26:56;;;;;;;25.23;22.90;;;6.20;99.90;;;;;;10529054;28;20224;-81
2021/11/12 22:32:01;;;;;;;26.57;23.97;;;6.20;99.90;;;;;;10535556;28;20200;-81
2021/11/12 22:37:05;;;;;;;26.30;23.90;;;6.20;99.90;;;;;;10543490;28;20315;-81
2021/11/12 22:42:12;;;;;;;25.03;22.57;;;6.10;99.90;;;;;;10515897;28;20706;-81
2021/11/12 22:47:14;;;;;;;25.40;23.00;;;6.00;99.90;;;;;;10543689;28;20226;-81
2021/11/12 22:52:18;;;;;;;25.87;23.50;;;6.00;99.90;;;;;;10545855;28;20221;-80
2021/11/12 22:57:21;;;;;;;26.07;23.60;;;5.90;99.90;;;;;;10546745;28;20216;-81
2021/11/12 23:02:23;;;;;;;25.50;23.13;;;6.00;99.90;;;;;;10510796;28;20215;-82
2021/11/12 23:07:29;;;;;;;25.60;23.20;;;5.90;99.90;;;;;;10456277;28;20221;-82
2021/11/12 23:12:34;;;;;;;26.20;23.70;;;5.90;99.90;;;;;;10538425;28;20231;-81
2021/11/12 23:17:39;;;;;;;26.67;24.17;;;5.90;99.90;;;;;;10551079;28;20240;-81
2021/11/12 23:22:44;;;;;;;24.13;22.03;;;5.90;99.90;;;;;;10550836;28;20228;-81
2021/11/12 23:27:46;;;;;;;25.30;22.97;;;5.90;99.90;;;;;;10550029;28;20243;-83
2021/11/12 23:32:48;;;;;;;24.70;22.60;;;5.80;99.90;;;;;;10533871;28;20193;-84
2021/11/12 23:38:38;;;;;;;25.70;23.20;;;5.80;99.90;;;;;;10541744;22;20413;-81
2021/11/12 23:44:19;;;;;;;23.87;21.77;;;5.80;99.90;;;;;;10461945;28;20460;-82
2021/11/12 23:49:22;;;;;;;25.87;23.57;;;5.80;99.90;;;;;;10437374;28;20308;-82
2021/11/12 23:54:56;;;;;;;22.37;20.47;;;5.80;99.90;;;;;;10439171;28;20268;-82
